Time;durP1;ratioP1;P1;durP2;ratioP2;P2;SDS_P1;SDS_P2;PMS_P1;PMS_P2;Temp;Humidity;BMP_temperature;BMP_pressure;BME280_temperature;BME280_humidity;BME280_pressure;Samples;Min_cycle;Max_cycle;Signal;HPM_P1;HPM_P2
2021/08/11 00:00:57;;;;;;;8.47;7.57;;;19.40;99.90;;;;;;5051361;28;20615;-78
2021/08/11 00:03:23;;;;;;;8.00;7.27;;;19.40;99.90;;;;;;5051762;28;20199;-78
2021/08/11 00:05:49;;;;;;;8.23;7.57;;;19.30;99.90;;;;;;5039258;28;20168;-77
2021/08/11 00:08:14;;;;;;;8.07;7.27;;;19.30;99.90;;;;;;5039111;28;20177;-78
2021/08/11 00:10:41;;;;;;;8.60;7.77;;;19.30;99.90;;;;;;5039718;28;20180;-77
2021/08/11 00:13:07;;;;;;;8.70;7.90;;;19.20;99.90;;;;;;5039974;28;20184;-77
2021/08/11 00:15:32;;;;;;;8.73;7.80;;;19.20;99.90;;;;;;5057530;28;20627;-77
2021/08/11 00:17:58;;;;;;;7.27;6.57;;;19.20;99.90;;;;;;5023913;28;20216;-77
2021/08/11 00:20:24;;;;;;;10.40;8.33;;;19.10;99.90;;;;;;5023371;28;20204;-77
2021/08/11 00:22:51;;;;;;;8.43;7.63;;;19.10;99.90;;;;;;5022327;28;20637;-77
2021/08/11 00:25:17;;;;;;;8.30;7.50;;;19.10;99.90;;;;;;5050015;28;20674;-77
2021/08/11 00:27:43;;;;;;;8.10;7.40;;;19.10;99.90;;;;;;5056726;28;21280;-77
2021/08/11 00:30:09;;;;;;;8.13;7.33;;;19.00;99.90;;;;;;5039611;28;20583;-77
2021/08/11 00:32:35;;;;;;;8.23;7.40;;;19.00;99.90;;;;;;5039659;28;20609;-77
2021/08/11 00:35:01;;;;;;;7.20;6.50;;;18.90;99.90;;;;;;5039427;28;20567;-77
2021/08/11 00:37:27;;;;;;;7.87;7.07;;;18.90;99.90;;;;;;5039785;28;20595;-77
2021/08/11 00:39:58;;;;;;;8.67;7.87;;;18.90;99.90;;;;;;5039707;28;20619;-77
2021/08/11 00:42:28;;;;;;;6.70;6.10;;;18.90;99.90;;;;;;5039788;28;20571;-77
2021/08/11 00:44:54;;;;;;;7.33;6.73;;;18.90;99.90;;;;;;5022952;28;20625;-77
2021/08/11 00:47:25;;;;;;;7.53;6.83;;;18.90;99.90;;;;;;5057613;28;20607;-78
2021/08/11 00:49:51;;;;;;;7.63;6.93;;;18.90;99.90;;;;;;5023246;28;20172;-78
2021/08/11 00:52:17;;;;;;;7.40;6.70;;;18.90;99.90;;;;;;5041068;28;20560;-77
2021/08/11 00:54:47;;;;;;;7.50;6.80;;;18.90;99.90;;;;;;5027712;28;20180;-77
2021/08/11 00:57:17;;;;;;;7.83;7.23;;;18.90;99.90;;;;;;5039483;28;20638;-78
2021/08/11 00:59:43;;;;;;;7.70;7.00;;;18.90;99.90;;;;;;5039399;28;20625;-77
2021/08/11 01:02:17;;;;;;;8.03;7.23;;;18.90;99.90;;;;;;5039776;28;20567;-77
2021/08/11 01:04:45;;;;;;;7.40;6.70;;;18.90;99.90;;;;;;5039231;28;20992;-77
2021/08/11 01:07:14;;;;;;;8.63;6.80;;;18.90;99.90;;;;;;5039396;28;21170;-77
2021/08/11 01:09:40;;;;;;;7.00;6.40;;;18.90;99.90;;;;;;5039493;28;20563;-77
2021/08/11 01:12:07;;;;;;;7.80;7.10;;;18.90;99.90;;;;;;5039778;28;20927;-77
2021/08/11 01:14:33;;;;;;;7.13;6.43;;;18.90;99.90;;;;;;5039273;28;20575;-77
2021/08/11 01:17:04;;;;;;;8.20;6.27;;;18.80;99.90;;;;;;5035165;28;20974;-77
2021/08/11 01:19:31;;;;;;;7.57;6.00;;;18.90;99.90;;;;;;5019415;28;20634;-78
2021/08/11 01:22:10;;;;;;;7.27;6.57;;;18.80;99.90;;;;;;5036334;28;20172;-78
2021/08/11 01:25:10;;;;;;;6.53;5.93;;;18.80;99.90;;;;;;5019583;28;20575;-78
2021/08/11 01:28:07;;;;;;;8.10;6.50;;;18.80;99.90;;;;;;5036190;28;20625;-79
2021/08/11 01:30:55;;;;;;;6.37;5.77;;;18.80;99.90;;;;;;5024146;28;20595;-77
2021/08/11 01:33:58;;;;;;;7.50;6.47;;;18.70;99.90;;;;;;5024521;28;20623;-78
2021/08/11 01:36:38;;;;;;;6.80;6.20;;;18.70;99.90;;;;;;5019171;28;20641;-78
2021/08/11 01:39:15;;;;;;;7.63;7.03;;;18.70;99.90;;;;;;5053021;28;20583;-77
2021/08/11 01:41:47;;;;;;;7.10;6.50;;;18.70;99.90;;;;;;5009762;28;20970;-78
2021/08/11 01:44:14;;;;;;;7.90;7.20;;;18.60;99.90;;;;;;5040491;28;20588;-78
2021/08/11 01:46:43;;;;;;;12.20;6.90;;;18.70;99.90;;;;;;5017448;28;20626;-78
2021/08/11 01:49:12;;;;;;;7.43;6.70;;;18.60;99.90;;;;;;5018975;28;21015;-78
2021/08/11 01:51:43;;;;;;;6.97;6.07;;;18.60;99.90;;;;;;5035765;28;20560;-77
2021/08/11 01:54:13;;;;;;;7.20;6.50;;;18.60;99.90;;;;;;5034796;28;21158;-77
2021/08/11 01:56:41;;;;;;;9.03;8.10;;;18.60;99.90;;;;;;5035198;28;20634;-77
2021/08/11 01:59:09;;;;;;;6.90;6.30;;;18.60;99.90;;;;;;5035865;28;20567;-77
2021/08/11 02:01:40;;;;;;;6.90;6.30;;;18.60;99.90;;;;;;5035836;28;20576;-77
2021/08/11 02:04:07;;;;;;;7.00;6.30;;;18.60;99.90;;;;;;5035575;28;20887;-77
2021/08/11 02:06:35;;;;;;;9.90;8.30;;;18.60;99.90;;;;;;5038503;28;20638;-77
2021/08/11 02:09:05;;;;;;;7.73;7.03;;;18.60;99.90;;;;;;5035649;28;20575;-77
2021/08/11 02:11:37;;;;;;;9.13;7.43;;;18.70;99.90;;;;;;5035481;28;20591;-77
2021/08/11 02:14:04;;;;;;;15.23;9.47;;;18.60;99.90;;;;;;5035147;28;20571;-77
2021/08/11 02:16:32;;;;;;;13.47;8.53;;;18.70;99.90;;;;;;5035124;28;20977;-77
2021/08/11 02:18:58;;;;;;;11.47;9.20;;;18.70;99.90;;;;;;5035201;28;20594;-77
2021/08/11 02:21:24;;;;;;;8.60;7.73;;;18.70;99.90;;;;;;5035014;28;20209;-77
2021/08/11 02:23:50;;;;;;;55.17;11.70;;;18.70;99.90;;;;;;5035115;28;20209;-77
2021/08/11 02:26:22;;;;;;;19.40;10.57;;;18.70;99.90;;;;;;5052653;28;21245;-77
2021/08/11 02:29:05;;;;;;;11.27;8.67;;;18.80;99.90;;;;;;5035193;28;20213;-77
2021/08/11 02:31:35;;;;;;;12.00;8.20;;;18.80;99.90;;;;;;5035135;28;20568;-77
2021/08/11 02:34:14;;;;;;;17.90;10.77;;;18.80;99.90;;;;;;5034627;28;20563;-77
2021/08/11 02:36:52;;;;;;;9.80;8.73;;;18.80;99.90;;;;;;5034968;28;20599;-77
2021/08/11 02:39:23;;;;;;;8.50;7.70;;;18.80;99.90;;;;;;5035231;28;20931;-78
2021/08/11 02:42:00;;;;;;;9.27;8.33;;;18.90;99.90;;;;;;5035317;28;20595;-78
2021/08/11 02:44:37;;;;;;;10.57;9.57;;;18.90;99.90;;;;;;5020385;28;21224;-78
2021/08/11 02:47:03;;;;;;;10.03;9.00;;;18.90;99.90;;;;;;5034459;28;20646;-77
2021/08/11 02:49:34;;;;;;;10.13;8.60;;;18.90;99.90;;;;;;5034976;28;20580;-77
2021/08/11 02:52:06;;;;;;;10.57;8.70;;;18.90;99.90;;;;;;5034709;28;21318;-77
2021/08/11 02:54:33;;;;;;;10.43;8.10;;;18.90;99.90;;;;;;5034009;28;21027;-77
2021/08/11 02:57:01;;;;;;;9.07;8.13;;;18.90;99.90;;;;;;5034451;28;20610;-77
2021/08/11 02:59:28;;;;;;;11.13;7.97;;;19.00;99.90;;;;;;5017756;28;20631;-77
2021/08/11 03:01:55;;;;;;;9.90;8.90;;;18.90;99.90;;;;;;5052366;28;20595;-77
2021/08/11 03:04:21;;;;;;;9.53;8.53;;;18.90;99.90;;;;;;5017406;28;20583;-77
2021/08/11 03:06:47;;;;;;;10.93;9.83;;;18.90;99.90;;;;;;5034115;28;20619;-77
2021/08/11 03:09:13;;;;;;;8.87;7.97;;;18.90;99.90;;;;;;5052134;28;20187;-77
2021/08/11 03:11:39;;;;;;;9.87;8.97;;;18.80;99.90;;;;;;5052203;28;20999;-77
2021/08/11 03:14:07;;;;;;;9.30;8.40;;;18.70;99.90;;;;;;5017422;28;20611;-77
2021/08/11 03:16:38;;;;;;;9.77;8.50;;;18.70;99.90;;;;;;5017629;28;20988;-77
2021/08/11 03:19:05;;;;;;;9.33;7.57;;;18.70;99.90;;;;;;5018175;28;20599;-78
2021/08/11 03:21:34;;;;;;;9.73;7.77;;;18.60;99.90;;;;;;5036090;28;20599;-77
2021/08/11 03:24:00;;;;;;;7.43;6.73;;;18.60;99.90;;;;;;5033728;28;20590;-78
2021/08/11 03:26:27;;;;;;;7.10;6.50;;;18.60;99.90;;;;;;5034139;28;20598;-77
2021/08/11 03:28:58;;;;;;;7.53;6.83;;;18.50;99.90;;;;;;5033950;28;20552;-77
2021/08/11 03:31:26;;;;;;;6.77;5.80;;;18.50;99.90;;;;;;5051853;28;20568;-77
2021/08/11 03:33:52;;;;;;;6.20;5.60;;;18.50;99.90;;;;;;5033868;28;20573;-77
2021/08/11 03:36:18;;;;;;;5.93;5.43;;;18.50;99.90;;;;;;5033524;28;21022;-76
2021/08/11 03:38:44;;;;;;;6.10;5.60;;;18.40;99.90;;;;;;5017102;28;20571;-76
2021/08/11 03:41:10;;;;;;;5.90;5.40;;;18.40;99.90;;;;;;5033610;28;20991;-77
2021/08/11 03:43:36;;;;;;;6.90;6.20;;;18.30;99.90;;;;;;5017357;28;20173;-77
2021/08/11 03:46:02;;;;;;;6.27;5.77;;;18.30;99.90;;;;;;5033094;28;20192;-77
2021/08/11 03:48:28;;;;;;;6.40;5.50;;;18.30;99.90;;;;;;5033777;28;20710;-77
2021/08/11 03:50:54;;;;;;;5.80;5.30;;;18.30;99.90;;;;;;5033440;28;21203;-77
2021/08/11 03:53:20;;;;;;;6.27;5.67;;;18.30;99.90;;;;;;5034018;28;20177;-77
2021/08/11 03:55:46;;;;;;;6.40;5.80;;;18.20;99.90;;;;;;5033359;28;20181;-77
2021/08/11 03:58:12;;;;;;;5.47;4.97;;;18.20;99.90;;;;;;5036144;28;20815;-76
2021/08/11 04:00:37;;;;;;;5.07;4.57;;;18.10;99.90;;;;;;5033433;28;20284;-76
2021/08/11 04:03:03;;;;;;;6.00;5.50;;;18.20;99.90;;;;;;5051440;28;20942;-76
2021/08/11 04:05:29;;;;;;;5.83;5.13;;;18.10;99.90;;;;;;5051024;28;20577;-76
2021/08/11 04:07:54;;;;;;;5.63;4.40;;;18.10;99.90;;;;;;5051361;28;20192;-76
2021/08/11 04:10:20;;;;;;;6.40;5.80;;;18.10;99.90;;;;;;5033472;28;20617;-78
2021/08/11 04:12:46;;;;;;;5.30;4.80;;;18.10;99.90;;;;;;5051177;28;20200;-77
2021/08/11 04:15:12;;;;;;;5.83;5.33;;;18.10;99.90;;;;;;5051345;28;20204;-77
2021/08/11 04:17:38;;;;;;;9.10;5.00;;;18.20;99.90;;;;;;5051359;28;20619;-77
2021/08/11 04:20:05;;;;;;;6.93;5.47;;;18.10;99.90;;;;;;5016937;28;20645;-77
2021/08/11 04:22:30;;;;;;;6.43;5.87;;;18.20;99.90;;;;;;5051118;28;20197;-77
2021/08/11 04:24:56;;;;;;;6.13;5.53;;;18.20;99.90;;;;;;5016809;28;21207;-77
2021/08/11 04:27:22;;;;;;;6.10;4.70;;;18.10;99.90;;;;;;5033113;28;20196;-77
2021/08/11 04:29:47;;;;;;;5.77;5.27;;;18.10;99.90;;;;;;5051200;28;20177;-77
2021/08/11 04:32:13;;;;;;;6.07;5.47;;;18.10;99.90;;;;;;5051091;28;20165;-77
2021/08/11 04:34:39;;;;;;;5.67;5.17;;;18.10;99.90;;;;;;5037347;28;20195;-78
2021/08/11 04:37:06;;;;;;;5.47;4.97;;;18.20;99.90;;;;;;5051046;28;20185;-78
2021/08/11 04:39:32;;;;;;;7.10;5.70;;;18.20;99.90;;;;;;5051142;28;20234;-78
2021/08/11 04:41:58;;;;;;;8.00;6.60;;;18.20;99.90;;;;;;5051112;28;21137;-78
2021/08/11 04:44:24;;;;;;;4.87;4.43;;;18.20;99.90;;;;;;5050868;28;20575;-77
2021/08/11 04:46:49;;;;;;;8.20;5.40;;;18.10;99.90;;;;;;5050808;28;20569;-78
2021/08/11 04:49:15;;;;;;;5.67;4.87;;;18.10;99.90;;;;;;5033352;28;20185;-77
2021/08/11 04:51:41;;;;;;;5.33;4.83;;;18.10;99.90;;;;;;5053076;28;20498;-77
2021/08/11 04:54:06;;;;;;;6.30;5.70;;;18.10;99.90;;;;;;5020033;28;20173;-77
2021/08/11 04:56:32;;;;;;;7.53;6.80;;;18.10;99.90;;;;;;5036535;28;20197;-77
2021/08/11 04:58:58;;;;;;;6.27;5.67;;;18.10;99.90;;;;;;5054564;28;20248;-77
2021/08/11 05:01:23;;;;;;;7.20;6.60;;;18.10;99.90;;;;;;5054896;28;20207;-77
2021/08/11 05:03:49;;;;;;;12.43;8.60;;;18.10;99.90;;;;;;5054635;28;20165;-78
2021/08/11 05:06:17;;;;;;;9.00;8.10;;;18.10;99.90;;;;;;5036448;28;20192;-78
2021/08/11 05:08:42;;;;;;;10.23;9.10;;;18.00;99.90;;;;;;5055169;28;20579;-78
2021/08/11 05:11:08;;;;;;;10.47;9.17;;;18.10;99.90;;;;;;5058260;28;20935;-82
2021/08/11 05:13:33;;;;;;;9.50;8.60;;;18.00;99.90;;;;;;5055393;28;20208;-81
2021/08/11 05:15:59;;;;;;;10.63;9.53;;;18.00;99.90;;;;;;5054225;28;20242;-80
2021/08/11 05:18:25;;;;;;;11.20;9.13;;;18.10;99.90;;;;;;5053746;28;20169;-81
2021/08/11 05:20:54;;;;;;;13.83;10.30;;;18.20;99.90;;;;;;5054239;28;20204;-81
2021/08/11 05:23:19;;;;;;;10.10;8.67;;;18.20;99.90;;;;;;5054138;28;20197;-80
2021/08/11 05:25:46;;;;;;;10.67;9.57;;;18.30;99.90;;;;;;5053746;28;20607;-80
2021/08/11 05:28:11;;;;;;;11.70;10.40;;;18.40;99.90;;;;;;5054252;28;20169;-80
2021/08/11 05:30:39;;;;;;;10.93;9.90;;;18.40;99.90;;;;;;5054109;28;20578;-80
2021/08/11 05:33:05;;;;;;;9.67;8.77;;;18.50;99.90;;;;;;5054037;28;20176;-80
2021/08/11 05:35:30;;;;;;;11.43;8.80;;;18.60;99.90;;;;;;5053490;28;20945;-80
2021/08/11 05:37:56;;;;;;;8.90;7.93;;;18.60;99.90;;;;;;5053756;28;20196;-80
2021/08/11 05:40:22;;;;;;;9.40;7.77;;;18.70;99.90;;;;;;5035927;28;20215;-79
2021/08/11 05:42:48;;;;;;;10.03;9.03;;;18.80;99.90;;;;;;5052960;28;20970;-79
2021/08/11 05:45:14;;;;;;;9.50;8.50;;;18.80;99.90;;;;;;5039964;28;20661;-80
2021/08/11 05:47:40;;;;;;;8.50;7.60;;;18.80;99.90;;;;;;5039036;28;20705;-80
2021/08/11 05:50:07;;;;;;;8.00;7.30;;;19.00;99.90;;;;;;5053402;28;20565;-80
2021/08/11 05:52:32;;;;;;;9.03;8.13;;;19.10;99.90;;;;;;5053516;28;20948;-80
2021/08/11 05:54:58;;;;;;;12.07;8.47;;;19.20;99.90;;;;;;5035432;28;20579;-80
2021/08/11 05:57:24;;;;;;;8.87;8.00;;;19.40;99.90;;;;;;5035151;28;20623;-80
2021/08/11 05:59:50;;;;;;;8.50;7.70;;;19.50;99.90;;;;;;5033349;28;20208;-80
2021/08/11 06:02:15;;;;;;;7.93;7.20;;;19.60;99.90;;;;;;4998422;28;20209;-80
2021/08/11 06:04:50;;;;;;;7.30;6.70;;;19.80;99.90;;;;;;5022764;28;20687;-80
2021/08/11 06:07:19;;;;;;;7.97;7.33;;;19.80;99.90;;;;;;5049360;28;20695;-79
2021/08/11 06:09:44;;;;;;;8.20;7.37;;;19.90;99.90;;;;;;5033420;28;20257;-80
2021/08/11 06:12:10;;;;;;;8.20;7.50;;;19.90;99.90;;;;;;5023403;28;20683;-80
2021/08/11 06:14:36;;;;;;;8.10;7.30;;;20.00;99.90;;;;;;5034351;28;20629;-79
2021/08/11 06:17:01;;;;;;;8.67;7.77;;;20.10;99.90;;;;;;5052353;28;20201;-79
2021/08/11 06:19:27;;;;;;;10.07;7.30;;;20.20;99.90;;;;;;5052896;28;20175;-79
2021/08/11 06:21:54;;;;;;;7.57;6.80;;;20.30;99.90;;;;;;5016790;28;20273;-78
2021/08/11 06:24:19;;;;;;;8.30;7.50;;;20.40;99.90;;;;;;5002888;28;20684;-79
2021/08/11 06:26:45;;;;;;;7.33;6.73;;;20.60;99.90;;;;;;5015240;28;20189;-78
2021/08/11 06:29:11;;;;;;;7.00;6.40;;;21.10;99.90;;;;;;5032737;28;20177;-78
2021/08/11 06:31:37;;;;;;;6.60;5.90;;;21.50;99.90;;;;;;4998478;28;21059;-77
2021/08/11 06:34:03;;;;;;;9.87;6.50;;;22.00;99.90;;;;;;5036547;28;20263;-77
2021/08/11 06:36:28;;;;;;;6.83;6.13;;;22.60;99.90;;;;;;5044286;28;20235;-78
2021/08/11 06:38:54;;;;;;;6.00;5.40;;;23.10;99.90;;;;;;5033789;28;20975;-78
2021/08/11 06:41:20;;;;;;;5.00;4.60;;;23.60;99.90;;;;;;5055839;28;20207;-80
2021/08/11 06:43:59;;;;;;;4.67;4.27;;;24.00;99.90;;;;;;5013822;28;20188;-81
2021/08/11 06:46:25;;;;;;;6.60;5.20;;;24.40;99.90;;;;;;5014423;28;20596;-79
2021/08/11 06:48:53;;;;;;;5.70;5.30;;;24.80;99.90;;;;;;5019418;28;20168;-80
2021/08/11 06:51:19;;;;;;;7.03;5.63;;;25.20;99.90;;;;;;5049299;28;20231;-81
2021/08/11 06:53:44;;;;;;;6.80;5.90;;;25.80;99.90;;;;;;5050850;28;20580;-81
2021/08/11 06:56:10;;;;;;;6.30;5.70;;;26.30;99.90;;;;;;5025913;28;20284;-79
2021/08/11 06:58:36;;;;;;;8.80;7.73;;;26.60;99.90;;;;;;4998264;28;20516;-79
2021/08/11 07:01:03;;;;;;;6.33;5.73;;;26.60;99.90;;;;;;5017559;28;20193;-78
2021/08/11 07:03:30;;;;;;;6.60;6.00;;;26.40;99.90;;;;;;4998294;28;20583;-82
2021/08/11 07:05:55;;;;;;;6.93;6.23;;;26.30;99.90;;;;;;5013916;28;20584;-81
2021/08/11 07:08:22;;;;;;;7.97;7.33;;;26.70;99.90;;;;;;4998010;28;20576;-81
2021/08/11 07:10:49;;;;;;;7.90;7.20;;;27.00;99.90;;;;;;5014279;28;20949;-81
2021/08/11 07:13:18;;;;;;;9.20;8.40;;;27.30;99.90;;;;;;5031261;28;20569;-81
2021/08/11 07:15:44;;;;;;;9.07;8.30;;;27.80;99.90;;;;;;5013904;28;21239;-81
2021/08/11 07:18:15;;;;;;;8.80;7.90;;;28.00;99.90;;;;;;5032055;28;20580;-83
2021/08/11 07:20:41;;;;;;;8.47;7.67;;;28.20;99.90;;;;;;5032025;28;20205;-83
2021/08/11 07:23:07;;;;;;;8.37;7.67;;;28.40;99.90;;;;;;5013303;28;20926;-82
2021/08/11 07:25:32;;;;;;;8.10;7.50;;;28.60;99.90;;;;;;5013694;28;20227;-82
2021/08/11 07:27:58;;;;;;;11.00;7.77;;;29.00;99.90;;;;;;5031356;28;20186;-83
2021/08/11 07:30:24;;;;;;;9.87;9.07;;;29.10;99.90;;;;;;5014202;28;20513;-82
2021/08/11 07:32:50;;;;;;;9.50;8.60;;;28.90;99.90;;;;;;5013967;28;20252;-82
2021/08/11 07:35:16;;;;;;;10.27;9.37;;;28.60;99.90;;;;;;5013792;28;21181;-82
2021/08/11 07:37:52;;;;;;;11.30;10.30;;;28.40;99.90;;;;;;5032984;28;20241;-82
2021/08/11 07:40:20;;;;;;;11.80;10.80;;;28.10;99.90;;;;;;5032135;28;20198;-82
2021/08/11 07:42:46;;;;;;;9.10;8.40;;;27.80;99.90;;;;;;5014029;28;20638;-83
2021/08/11 07:45:14;;;;;;;9.17;8.37;;;27.40;99.90;;;;;;5013372;28;20572;-83
2021/08/11 07:47:40;;;;;;;9.50;8.60;;;27.10;99.90;;;;;;5031555;28;20181;-83
2021/08/11 07:50:06;;;;;;;7.63;7.03;;;26.90;99.90;;;;;;5014064;28;21116;-83
2021/08/11 07:52:32;;;;;;;9.77;6.97;;;26.60;99.90;;;;;;5013696;28;20647;-82
2021/08/11 07:54:58;;;;;;;7.60;6.87;;;26.60;99.90;;;;;;5021125;28;20595;-82
2021/08/11 07:57:24;;;;;;;6.60;6.03;;;26.90;99.90;;;;;;5020316;28;20629;-83
2021/08/11 07:59:50;;;;;;;6.77;6.17;;;27.50;99.90;;;;;;5049917;28;20200;-81
2021/08/11 08:02:15;;;;;;;7.23;6.53;;;27.80;99.90;;;;;;5032848;28;20173;-82
2021/08/11 08:04:41;;;;;;;6.13;5.37;;;28.30;99.90;;;;;;5050856;28;20500;-82
2021/08/11 08:07:08;;;;;;;7.03;6.43;;;28.70;99.90;;;;;;5036945;28;20185;-82
2021/08/11 08:09:34;;;;;;;5.17;4.77;;;29.30;99.90;;;;;;5049868;28;20537;-82
2021/08/11 08:11:59;;;;;;;5.80;5.40;;;29.70;99.90;;;;;;5032592;28;20590;-82
2021/08/11 08:14:25;;;;;;;5.17;4.77;;;29.60;99.90;;;;;;5051470;28;20177;-82
2021/08/11 08:16:51;;;;;;;6.67;5.17;;;29.50;99.90;;;;;;5050971;28;20672;-82
2021/08/11 08:19:17;;;;;;;6.63;5.97;;;29.30;99.90;;;;;;5051287;28;20226;-82
2021/08/11 08:21:43;;;;;;;6.27;5.73;;;29.00;99.90;;;;;;5050784;28;20176;-82
2021/08/11 08:24:09;;;;;;;5.53;4.30;;;28.70;99.90;;;;;;5032718;28;20575;-83
2021/08/11 08:26:34;;;;;;;4.50;4.20;;;28.60;99.90;;;;;;5019727;28;20189;-83
2021/08/11 08:29:00;;;;;;;4.57;4.17;;;28.70;99.90;;;;;;5020864;28;20676;-83
2021/08/11 08:31:26;;;;;;;8.60;4.53;;;28.80;99.90;;;;;;5020088;28;20584;-83
2021/08/11 08:33:52;;;;;;;5.17;4.70;;;29.00;99.90;;;;;;5051894;28;20501;-84
2021/08/11 08:36:19;;;;;;;5.17;4.67;;;29.30;99.90;;;;;;5054509;28;20200;-83
2021/08/11 08:38:45;;;;;;;5.20;4.70;;;29.70;99.90;;;;;;5054645;28;21146;-83
2021/08/11 08:41:11;;;;;;;4.90;4.50;;;30.30;99.90;;;;;;5056240;28;20201;-83
2021/08/11 08:43:37;;;;;;;9.20;6.23;;;30.90;99.90;;;;;;5060312;28;20170;-83
2021/08/11 08:46:03;;;;;;;5.87;5.33;;;31.30;99.90;;;;;;5059950;28;20602;-83
2021/08/11 08:48:29;;;;;;;4.87;4.47;;;31.80;99.90;;;;;;5076110;28;20660;-83
2021/08/11 08:50:56;;;;;;;4.70;4.30;;;32.00;99.90;;;;;;5075196;28;20645;-84
2021/08/11 08:53:23;;;;;;;5.83;4.80;;;32.30;99.90;;;;;;5076747;28;20610;-82
2021/08/11 08:55:52;;;;;;;6.00;5.50;;;33.00;99.90;;;;;;5072360;28;20559;-82
2021/08/11 08:58:18;;;;;;;5.00;4.60;;;33.60;99.90;;;;;;5020984;28;21150;-81
2021/08/11 09:00:44;;;;;;;5.20;4.80;;;33.90;99.90;;;;;;5054263;28;20623;-82
2021/08/11 09:03:10;;;;;;;6.20;5.70;;;34.50;99.90;;;;;;5054244;28;20579;-83
2021/08/11 09:05:36;;;;;;;5.67;5.27;;;35.10;99.90;;;;;;5053871;28;20598;-83
2021/08/11 09:08:02;;;;;;;5.57;5.13;;;35.50;99.90;;;;;;5036074;28;20766;-84
2021/08/11 09:10:29;;;;;;;5.23;4.60;;;36.00;99.90;;;;;;5019704;28;20192;-84
2021/08/11 09:13:06;;;;;;;5.80;5.27;;;36.50;99.90;;;;;;5054029;28;20260;-84
2021/08/11 09:15:39;;;;;;;5.30;4.90;;;37.00;99.10;;;;;;5054104;28;20573;-83
2021/08/11 09:18:28;;;;;;;4.47;4.17;;;37.60;98.60;;;;;;5055006;28;20582;-83
2021/08/11 09:21:02;;;;;;;4.57;4.17;;;37.90;97.50;;;;;;5022122;28;21101;-83
2021/08/11 09:23:34;;;;;;;3.77;3.47;;;38.10;95.70;;;;;;5019493;28;20571;-83
2021/08/11 09:26:12;;;;;;;3.93;3.60;;;38.40;94.00;;;;;;5035700;28;20603;-83
2021/08/11 09:28:40;;;;;;;3.00;2.80;;;38.70;93.50;;;;;;5057165;28;20562;-83
2021/08/11 09:31:30;;;;;;;3.27;2.93;;;38.90;92.80;;;;;;5054071;28;20579;-83
2021/08/11 09:34:01;;;;;;;3.57;3.27;;;39.20;92.40;;;;;;5053550;28;20579;-81
2021/08/11 09:36:38;;;;;;;3.43;3.03;;;39.60;90.80;;;;;;5034981;28;20607;-81
2021/08/11 09:39:05;;;;;;;2.90;2.70;;;39.80;88.50;;;;;;5053491;28;20567;-83
2021/08/11 09:41:34;;;;;;;3.90;3.50;;;39.70;85.10;;;;;;5053910;28;20615;-83
2021/08/11 09:44:08;;;;;;;3.80;3.50;;;39.30;80.70;;;;;;5035272;28;20567;-83
2021/08/11 09:46:35;;;;;;;3.60;3.30;;;38.90;78.20;;;;;;5035600;28;20719;-84
2021/08/11 09:49:01;;;;;;;3.40;3.07;;;38.10;78.00;;;;;;5053341;28;20560;-83
2021/08/11 09:51:27;;;;;;;2.53;2.33;;;37.40;76.80;;;;;;5035760;28;20575;-84
2021/08/11 09:53:53;;;;;;;4.50;3.10;;;36.70;76.80;;;;;;5019277;28;20609;-84
2021/08/11 09:56:19;;;;;;;2.63;2.43;;;36.10;76.70;;;;;;5035104;28;20264;-82
2021/08/11 09:59:01;;;;;;;3.67;2.63;;;35.50;77.60;;;;;;5019007;28;20188;-82
2021/08/11 10:01:28;;;;;;;2.57;2.37;;;35.10;78.60;;;;;;5035692;28;20629;-82
2021/08/11 10:04:01;;;;;;;2.83;2.63;;;34.60;78.60;;;;;;5035776;28;20571;-82
2021/08/11 10:06:41;;;;;;;2.40;2.20;;;34.10;78.80;;;;;;5055453;28;20723;-82
2021/08/11 10:09:26;;;;;;;2.80;2.43;;;34.00;81.00;;;;;;5035158;28;20578;-82
2021/08/11 10:11:54;;;;;;;2.43;2.20;;;34.10;82.70;;;;;;5035159;28;20616;-82
2021/08/11 10:14:25;;;;;;;3.17;2.30;;;34.10;82.70;;;;;;5034969;28;20583;-82
2021/08/11 10:16:52;;;;;;;3.43;1.90;;;34.30;84.40;;;;;;5052456;28;20637;-81
2021/08/11 10:19:22;;;;;;;4.90;2.03;;;34.70;85.30;;;;;;5074594;23;20570;-82
2021/08/11 10:21:49;;;;;;;2.90;1.70;;;35.10;84.50;;;;;;5002366;28;20619;-82
2021/08/11 10:24:15;;;;;;;1.77;1.43;;;35.40;83.80;;;;;;5014715;28;20576;-81
2021/08/11 10:26:42;;;;;;;2.70;2.20;;;35.70;83.10;;;;;;5032583;28;20591;-81
2021/08/11 10:29:08;;;;;;;3.07;2.60;;;36.10;84.10;;;;;;5033082;28;21149;-81
2021/08/11 10:31:35;;;;;;;3.40;2.20;;;36.40;81.30;;;;;;5051253;28;20938;-81
2021/08/11 10:34:02;;;;;;;2.17;1.47;;;36.40;78.90;;;;;;5051994;28;20655;-82
2021/08/11 10:36:31;;;;;;;2.40;2.20;;;36.30;77.40;;;;;;5052395;28;20666;-82
2021/08/11 10:38:59;;;;;;;2.23;2.03;;;36.10;76.40;;;;;;5052299;28;21050;-80
2021/08/11 10:41:30;;;;;;;4.50;1.93;;;35.70;75.50;;;;;;5052412;28;20673;-80
2021/08/11 10:44:00;;;;;;;2.30;1.50;;;35.30;74.00;;;;;;5052517;28;21002;-80
2021/08/11 10:46:36;;;;;;;2.53;2.27;;;35.00;75.60;;;;;;5034662;28;20641;-80
2021/08/11 10:49:04;;;;;;;2.23;1.40;;;34.90;77.40;;;;;;5056058;28;20686;-81
2021/08/11 10:51:43;;;;;;;2.13;1.87;;;35.10;77.80;;;;;;5034739;28;20583;-82
2021/08/11 10:54:10;;;;;;;2.20;1.70;;;35.20;77.90;;;;;;5034091;28;20576;-80
2021/08/11 10:56:53;;;;;;;2.53;2.00;;;35.40;77.80;;;;;;5051946;28;20658;-84
2021/08/11 10:59:21;;;;;;;2.67;1.70;;;35.40;76.80;;;;;;5002805;28;20572;-83
2021/08/11 11:01:48;;;;;;;3.97;1.83;;;35.70;78.90;;;;;;5031309;28;20627;-84
2021/08/11 11:04:37;;;;;;;2.20;1.90;;;36.10;79.40;;;;;;5032008;28;20581;-84
2021/08/11 11:07:12;;;;;;;3.90;2.10;;;36.20;77.20;;;;;;5013770;28;21167;-84
2021/08/11 11:09:40;;;;;;;2.93;2.57;;;36.00;73.30;;;;;;5032182;28;20614;-83
2021/08/11 11:12:18;;;;;;;3.90;3.50;;;35.80;72.60;;;;;;5013973;28;20573;-84
2021/08/11 11:14:57;;;;;;;3.27;2.53;;;35.40;71.80;;;;;;5031808;28;20568;-84
2021/08/11 11:17:35;;;;;;;2.83;1.93;;;35.00;71.30;;;;;;5032252;28;20579;-84
2021/08/11 11:20:08;;;;;;;2.40;2.17;;;34.60;70.50;;;;;;5031965;28;20679;-85
2021/08/11 11:22:49;;;;;;;2.43;1.67;;;34.20;71.30;;;;;;5032824;28;20571;-85
2021/08/11 11:25:17;;;;;;;2.83;1.73;;;33.90;72.40;;;;;;5016167;28;20649;-86
2021/08/11 11:27:44;;;;;;;2.20;1.50;;;33.60;73.20;;;;;;5037214;28;20972;-86
2021/08/11 11:30:30;;;;;;;2.63;1.40;;;33.40;73.10;;;;;;5014343;28;20714;-84
2021/08/11 11:33:23;;;;;;;2.40;2.10;;;33.20;73.10;;;;;;4997892;28;20189;-84
2021/08/11 11:36:18;;;;;;;2.50;1.93;;;33.00;73.90;;;;;;5013624;28;20594;-84
2021/08/11 11:39:03;;;;;;;2.03;1.50;;;32.90;74.30;;;;;;5033803;28;20589;-85
2021/08/11 11:41:29;;;;;;;3.50;2.50;;;32.80;74.00;;;;;;5031269;28;20719;-86
2021/08/11 11:43:57;;;;;;;3.30;1.67;;;32.80;75.70;;;;;;5030508;28;20677;-84
2021/08/11 11:46:47;;;;;;;2.93;1.50;;;32.90;75.30;;;;;;5031123;28;20171;-85
2021/08/11 11:49:17;;;;;;;2.07;1.87;;;33.00;75.40;;;;;;5031602;28;20986;-85
2021/08/11 11:51:44;;;;;;;4.40;1.60;;;33.00;75.30;;;;;;5013626;28;20610;-85
2021/08/11 11:54:12;;;;;;;1.90;1.27;;;33.20;76.30;;;;;;5013707;28;21008;-85
2021/08/11 11:56:37;;;;;;;2.93;1.67;;;33.30;75.90;;;;;;5013569;28;20587;-85
2021/08/11 11:59:07;;;;;;;2.80;1.70;;;33.40;76.40;;;;;;5031537;28;20644;-86
2021/08/11 12:01:37;;;;;;;1.63;1.37;;;33.50;75.00;;;;;;5003621;28;20251;-86
2021/08/11 12:04:03;;;;;;;3.50;1.63;;;33.70;75.10;;;;;;5043943;28;20604;-86
2021/08/11 12:06:41;;;;;;;2.30;1.50;;;34.00;75.70;;;;;;5046300;28;20608;-86
2021/08/11 12:09:07;;;;;;;2.20;1.70;;;34.10;74.10;;;;;;5013838;28;20173;-86
2021/08/11 12:11:35;;;;;;;2.23;2.00;;;34.30;74.20;;;;;;5013359;28;20608;-85
2021/08/11 12:14:01;;;;;;;3.07;1.73;;;34.40;73.40;;;;;;4997310;28;20616;-86
2021/08/11 12:16:39;;;;;;;2.73;1.73;;;34.50;72.20;;;;;;5031096;28;20584;-86
2021/08/11 12:19:13;;;;;;;2.50;1.50;;;34.40;69.60;;;;;;5013539;28;20603;-83
2021/08/11 12:21:40;;;;;;;5.27;1.80;;;34.40;69.90;;;;;;5013332;28;21032;-84
2021/08/11 12:24:05;;;;;;;1.60;1.37;;;34.40;71.00;;;;;;5012949;28;20572;-84
2021/08/11 12:26:32;;;;;;;3.47;2.00;;;34.50;70.80;;;;;;5030878;28;20575;-85
2021/08/11 12:28:59;;;;;;;4.90;2.90;;;34.50;70.00;;;;;;5013357;28;20157;-85
2021/08/11 12:31:32;;;;;;;2.50;2.00;;;34.50;69.30;;;;;;5030905;28;20620;-85
2021/08/11 12:34:00;;;;;;;2.80;1.93;;;34.30;67.80;;;;;;5013052;28;20586;-85
2021/08/11 12:36:31;;;;;;;2.17;1.63;;;34.10;67.50;;;;;;5013328;28;20576;-84
2021/08/11 12:39:11;;;;;;;2.07;1.77;;;34.00;67.50;;;;;;5015148;28;20581;-84
2021/08/11 12:41:40;;;;;;;2.00;1.50;;;33.70;66.00;;;;;;5015110;28;20661;-85
2021/08/11 12:44:13;;;;;;;2.40;2.13;;;33.50;66.90;;;;;;5013144;28;21119;-85
2021/08/11 12:46:47;;;;;;;2.77;1.87;;;33.40;67.60;;;;;;5030929;28;20568;-87
2021/08/11 12:49:19;;;;;;;2.33;2.13;;;33.20;67.10;;;;;;5013486;28;20584;-85
2021/08/11 12:51:47;;;;;;;2.20;1.70;;;33.10;67.90;;;;;;5031153;28;20581;-83
2021/08/11 12:54:12;;;;;;;3.40;2.20;;;33.00;68.30;;;;;;4996785;28;20586;-85